sensor_id;sensor_type;location;lat;lon;timestamp;pressure;altitude;pressure_sealevel;temperature;humidity
48848;BME280;36611;51.638;5.784;2023-06-01T00:00:11;102224.53;;;26.60;35.92
48848;BME280;36611;51.638;5.784;2023-06-01T00:02:42;102227.28;;;26.60;35.85
48848;BME280;36611;51.638;5.784;2023-06-01T00:05:09;102219.00;;;26.60;35.98
48848;BME280;36611;51.638;5.784;2023-06-01T00:07:35;102220.06;;;26.59;35.96
48848;BME280;36611;51.638;5.784;2023-06-01T00:10:03;102223.66;;;26.60;35.86
48848;BME280;36611;51.638;5.784;2023-06-01T00:12:29;102222.63;;;26.61;36.13
48848;BME280;36611;51.638;5.784;2023-06-01T00:14:56;102227.28;;;26.60;35.97
48848;BME280;36611;51.638;5.784;2023-06-01T00:17:24;102229.34;;;26.58;35.99
48848;BME280;36611;51.638;5.784;2023-06-01T00:19:50;102233.84;;;26.59;36.19
48848;BME280;36611;51.638;5.784;2023-06-01T00:22:19;102229.34;;;26.58;36.00
48848;BME280;36611;51.638;5.784;2023-06-01T00:24:46;102221.09;;;26.58;35.97
48848;BME280;36611;51.638;5.784;2023-06-01T00:27:12;102222.13;;;26.57;35.98
48848;BME280;36611;51.638;5.784;2023-06-01T00:29:39;102230.41;;;26.57;36.08
48848;BME280;36611;51.638;5.784;2023-06-01T00:32:06;102218.50;;;26.57;36.17
48848;BME280;36611;51.638;5.784;2023-06-01T00:34:33;102219.38;;;26.57;36.16
48848;BME280;36611;51.638;5.784;2023-06-01T00:36:59;102211.09;;;26.57;36.13
48848;BME280;36611;51.638;5.784;2023-06-01T00:39:26;102222.13;;;26.57;35.98
48848;BME280;36611;51.638;5.784;2023-06-01T00:41:53;102216.63;;;26.57;36.03
48848;BME280;36611;51.638;5.784;2023-06-01T00:44:23;102216.81;;;26.56;36.05
48848;BME280;36611;51.638;5.784;2023-06-01T00:46:49;102223.16;;;26.56;35.98
48848;BME280;36611;51.638;5.784;2023-06-01T00:49:17;102223.16;;;26.56;36.04
48848;BME280;36611;51.638;5.784;2023-06-01T00:51:44;102217.84;;;26.55;35.97
48848;BME280;36611;51.638;5.784;2023-06-01T00:54:11;102220.59;;;26.55;36.11
48848;BME280;36611;51.638;5.784;2023-06-01T00:56:38;102218.69;;;26.55;36.10
48848;BME280;36611;51.638;5.784;2023-06-01T00:59:04;102228.84;;;26.55;36.11
48848;BME280;36611;51.638;5.784;2023-06-01T01:01:31;102225.25;;;26.54;36.06
48848;BME280;36611;51.638;5.784;2023-06-01T01:04:00;102223.53;;;26.53;36.05
48848;BME280;36611;51.638;5.784;2023-06-01T01:09:35;102229.91;;;26.54;36.15
48848;BME280;36611;51.638;5.784;2023-06-01T01:12:33;102231.97;;;26.52;35.90
48848;BME280;36611;51.638;5.784;2023-06-01T01:18:13;102229.59;;;26.49;36.02
48848;BME280;36611;51.638;5.784;2023-06-01T01:20:44;102234.22;;;26.48;36.21
48848;BME280;36611;51.638;5.784;2023-06-01T01:23:26;102233.38;;;26.48;36.04
48848;BME280;36611;51.638;5.784;2023-06-01T01:28:40;102236.66;;;26.43;35.97
48848;BME280;36611;51.638;5.784;2023-06-01T01:31:13;102243.03;;;26.44;36.07
48848;BME280;36611;51.638;5.784;2023-06-01T01:33:43;102238.38;;;26.44;36.10
48848;BME280;36611;51.638;5.784;2023-06-01T01:36:10;102237.53;;;26.44;36.21
48848;BME280;36611;51.638;5.784;2023-06-01T01:38:37;102242.00;;;26.45;36.12
48848;BME280;36611;51.638;5.784;2023-06-01T01:41:04;102240.97;;;26.46;36.20
48848;BME280;36611;51.638;5.784;2023-06-01T01:43:31;102237.34;;;26.45;36.15
48848;BME280;36611;51.638;5.784;2023-06-01T01:46:13;102229.94;;;26.46;36.15
48848;BME280;36611;51.638;5.784;2023-06-01T01:49:16;102239.25;;;26.45;36.08
48848;BME280;36611;51.638;5.784;2023-06-01T01:52:18;102235.81;;;26.43;35.92
48848;BME280;36611;51.638;5.784;2023-06-01T01:54:49;102237.72;;;26.42;36.14
48848;BME280;36611;51.638;5.784;2023-06-01T01:57:17;102244.25;;;26.41;36.10
48848;BME280;36611;51.638;5.784;2023-06-01T01:59:45;102237.72;;;26.42;36.20
48848;BME280;36611;51.638;5.784;2023-06-01T02:02:12;102236.84;;;26.42;35.99
48848;BME280;36611;51.638;5.784;2023-06-01T02:04:41;102243.22;;;26.42;36.10
48848;BME280;36611;51.638;5.784;2023-06-01T02:07:08;102238.75;;;26.41;36.14
48848;BME280;36611;51.638;5.784;2023-06-01T02:09:36;102243.22;;;26.42;36.17
48848;BME280;36611;51.638;5.784;2023-06-01T02:12:04;102242.34;;;26.42;35.88
48848;BME280;36611;51.638;5.784;2023-06-01T02:14:32;102242.34;;;26.42;36.23
48848;BME280;36611;51.638;5.784;2023-06-01T02:16:59;102236.00;;;26.41;36.04
48848;BME280;36611;51.638;5.784;2023-06-01T02:19:27;102241.50;;;26.41;35.93
48848;BME280;36611;51.638;5.784;2023-06-01T02:21:54;102237.88;;;26.41;35.94
48848;BME280;36611;51.638;5.784;2023-06-01T02:24:21;102240.66;;;26.41;36.16
48848;BME280;36611;51.638;5.784;2023-06-01T02:26:48;102235.13;;;26.41;36.18
48848;BME280;36611;51.638;5.784;2023-06-01T02:29:19;102232.38;;;26.41;36.04
48848;BME280;36611;51.638;5.784;2023-06-01T02:31:49;102234.28;;;26.40;36.06
48848;BME280;36611;51.638;5.784;2023-06-01T02:34:17;102231.53;;;26.40;35.57
48848;BME280;36611;51.638;5.784;2023-06-01T02:36:44;102221.53;;;26.39;35.89
48848;BME280;36611;51.638;5.784;2023-06-01T02:39:11;102228.94;;;26.39;36.33
48848;BME280;36611;51.638;5.784;2023-06-01T02:41:39;102227.06;;;26.39;36.18
48848;BME280;36611;51.638;5.784;2023-06-01T02:44:06;102227.06;;;26.39;36.06
48848;BME280;36611;51.638;5.784;2023-06-01T02:46:33;102231.69;;;26.39;35.84
48848;BME280;36611;51.638;5.784;2023-06-01T02:49:00;102227.06;;;26.39;36.07
48848;BME280;36611;51.638;5.784;2023-06-01T02:51:27;102236.34;;;26.38;36.11
48848;BME280;36611;51.638;5.784;2023-06-01T02:54:04;102235.50;;;26.38;36.22
48848;BME280;36611;51.638;5.784;2023-06-01T02:56:31;102229.13;;;26.37;36.13
48848;BME280;36611;51.638;5.784;2023-06-01T02:59:07;102236.53;;;26.37;36.29
48848;BME280;36611;51.638;5.784;2023-06-01T03:01:42;102232.56;;;26.31;35.96
48848;BME280;36611;51.638;5.784;2023-06-01T03:04:09;102228.94;;;26.31;36.19
48848;BME280;36611;51.638;5.784;2023-06-01T03:06:37;102226.03;;;26.32;36.12
48848;BME280;36611;51.638;5.784;2023-06-01T03:09:10;102223.13;;;26.34;36.12
48848;BME280;36611;51.638;5.784;2023-06-01T03:12:03;102225.00;;;26.33;36.30
48848;BME280;36611;51.638;5.784;2023-06-01T03:14:31;102228.63;;;26.34;36.08
48848;BME280;36611;51.638;5.784;2023-06-01T03:16:58;102225.88;;;26.34;36.07
48848;BME280;36611;51.638;5.784;2023-06-01T03:19:24;102225.88;;;26.34;35.99
48848;BME280;36611;51.638;5.784;2023-06-01T03:21:53;102228.63;;;26.34;36.26
48848;BME280;36611;51.638;5.784;2023-06-01T03:24:21;102228.78;;;26.32;36.16
48848;BME280;36611;51.638;5.784;2023-06-01T03:26:56;102218.66;;;26.33;35.96
48848;BME280;36611;51.638;5.784;2023-06-01T03:29:24;102222.25;;;26.33;36.17
48848;BME280;36611;51.638;5.784;2023-06-01T03:31:51;102220.38;;;26.34;36.11
48848;BME280;36611;51.638;5.784;2023-06-01T03:34:22;102224.16;;;26.33;35.90
48848;BME280;36611;51.638;5.784;2023-06-01T03:36:48;102218.66;;;26.33;36.26
48848;BME280;36611;51.638;5.784;2023-06-01T03:39:16;102222.25;;;26.33;36.02
48848;BME280;36611;51.638;5.784;2023-06-01T03:41:43;102220.38;;;26.34;35.96
48848;BME280;36611;51.638;5.784;2023-06-01T03:44:11;102221.22;;;26.34;36.17
48848;BME280;36611;51.638;5.784;2023-06-01T03:46:39;102225.88;;;26.34;35.96
48848;BME280;36611;51.638;5.784;2023-06-01T03:49:07;102215.00;;;26.32;36.09
48848;BME280;36611;51.638;5.784;2023-06-01T03:51:33;102223.44;;;26.31;36.02
48848;BME280;36611;51.638;5.784;2023-06-01T03:54:02;102224.31;;;26.31;36.10
48848;BME280;36611;51.638;5.784;2023-06-01T03:56:29;102227.06;;;26.31;36.08
48848;BME280;36611;51.638;5.784;2023-06-01T03:58:59;102235.31;;;26.31;36.01
48848;BME280;36611;51.638;5.784;2023-06-01T04:01:27;102241.69;;;26.32;36.06
48848;BME280;36611;51.638;5.784;2023-06-01T04:03:56;102232.56;;;26.31;35.96
48848;BME280;36611;51.638;5.784;2023-06-01T04:06:23;102239.97;;;26.31;36.20
48848;BME280;36611;51.638;5.784;2023-06-01T04:08:51;102243.56;;;26.31;35.91
48848;BME280;36611;51.638;5.784;2023-06-01T04:11:22;102232.75;;;26.29;35.98
48848;BME280;36611;51.638;5.784;2023-06-01T04:13:50;102235.50;;;26.29;35.70
48848;BME280;36611;51.638;5.784;2023-06-01T04:16:18;102234.47;;;26.31;36.28
48848;BME280;36611;51.638;5.784;2023-06-01T04:18:44;102238.06;;;26.31;35.96
48848;BME280;36611;51.638;5.784;2023-06-01T04:21:24;102233.78;;;26.28;35.67
48848;BME280;36611;51.638;5.784;2023-06-01T04:23:51;102229.13;;;26.29;35.96
48848;BME280;36611;51.638;5.784;2023-06-01T04:26:20;102229.13;;;26.29;35.97
48848;BME280;36611;51.638;5.784;2023-06-01T04:28:46;102239.09;;;26.30;35.93
48848;BME280;36611;51.638;5.784;2023-06-01T04:31:15;102236.53;;;26.28;35.82
48848;BME280;36611;51.638;5.784;2023-06-01T04:33:46;102236.53;;;26.28;36.43
48848;BME280;36611;51.638;5.784;2023-06-01T04:36:22;102239.28;;;26.28;35.87
48848;BME280;36611;51.638;5.784;2023-06-01T04:38:53;102246.69;;;26.28;35.97
48848;BME280;36611;51.638;5.784;2023-06-01T04:41:21;102247.56;;;26.28;35.84
48848;BME280;36611;51.638;5.784;2023-06-01T04:43:49;102241.19;;;26.28;35.86
48848;BME280;36611;51.638;5.784;2023-06-01T04:46:22;102240.31;;;26.27;35.92
48848;BME280;36611;51.638;5.784;2023-06-01T04:48:52;102246.69;;;26.28;35.92
48848;BME280;36611;51.638;5.784;2023-06-01T04:51:19;102243.06;;;26.27;35.80
48848;BME280;36611;51.638;5.784;2023-06-01T04:53:48;102240.31;;;26.27;35.81
48848;BME280;36611;51.638;5.784;2023-06-01T04:56:20;102244.97;;;26.27;35.90
48848;BME280;36611;51.638;5.784;2023-06-01T04:58:51;102246.69;;;26.28;35.79
48848;BME280;36611;51.638;5.784;2023-06-01T05:01:21;102245.84;;;26.27;35.87
48848;BME280;36611;51.638;5.784;2023-06-01T05:03:52;102244.13;;;26.26;35.83
48848;BME280;36611;51.638;5.784;2023-06-01T05:06:21;102251.34;;;26.27;35.85
48848;BME280;36611;51.638;5.784;2023-06-01T05:08:48;102248.75;;;26.26;36.00
48848;BME280;36611;51.638;5.784;2023-06-01T05:11:16;102249.63;;;26.26;35.88
48848;BME280;36611;51.638;5.784;2023-06-01T05:13:42;102246.00;;;26.26;35.98
48848;BME280;36611;51.638;5.784;2023-06-01T05:16:11;102242.41;;;26.25;35.95
48848;BME280;36611;51.638;5.784;2023-06-01T05:18:38;102239.66;;;26.25;35.75
48848;BME280;36611;51.638;5.784;2023-06-01T05:21:05;102247.91;;;26.25;35.80
48848;BME280;36611;51.638;5.784;2023-06-01T05:23:31;102247.03;;;26.25;35.83
48848;BME280;36611;51.638;5.784;2023-06-01T05:25:58;102248.75;;;26.26;35.79
48848;BME280;36611;51.638;5.784;2023-06-01T05:28:32;102243.25;;;26.26;35.76
48848;BME280;36611;51.638;5.784;2023-06-01T05:31:02;102236.88;;;26.25;35.87
48848;BME280;36611;51.638;5.784;2023-06-01T05:33:33;102234.13;;;26.25;35.95
48848;BME280;36611;51.638;5.784;2023-06-01T05:36:00;102238.59;;;26.26;35.79
48848;BME280;36611;51.638;5.784;2023-06-01T05:38:27;102233.97;;;26.27;35.52
48848;BME280;36611;51.638;5.784;2023-06-01T05:40:53;102228.63;;;26.25;35.69
48848;BME280;36611;51.638;5.784;2023-06-01T05:43:20;102236.88;;;26.25;36.06
48848;BME280;36611;51.638;5.784;2023-06-01T05:45:47;102232.25;;;26.26;36.32
48848;BME280;36611;51.638;5.784;2023-06-01T05:48:14;102243.25;;;26.26;35.70
48848;BME280;36611;51.638;5.784;2023-06-01T05:50:46;102247.91;;;26.25;35.82
48848;BME280;36611;51.638;5.784;2023-06-01T05:53:13;102242.41;;;26.25;35.81
48848;BME280;36611;51.638;5.784;2023-06-01T05:55:40;102254.44;;;26.24;35.94
48848;BME280;36611;51.638;5.784;2023-06-01T05:58:06;102245.16;;;26.25;35.63
48848;BME280;36611;51.638;5.784;2023-06-01T06:00:33;102244.28;;;26.25;35.86
48848;BME280;36611;51.638;5.784;2023-06-01T06:03:03;102252.56;;;26.25;35.86
48848;BME280;36611;51.638;5.784;2023-06-01T06:05:30;102254.44;;;26.24;35.63
48848;BME280;36611;51.638;5.784;2023-06-01T06:07:57;102247.03;;;26.25;35.81
48848;BME280;36611;51.638;5.784;2023-06-01T06:10:24;102247.03;;;26.25;35.63
48848;BME280;36611;51.638;5.784;2023-06-01T06:12:50;102249.81;;;26.25;35.81
48848;BME280;36611;51.638;5.784;2023-06-01T06:15:17;102253.41;;;26.25;35.89
48848;BME280;36611;51.638;5.784;2023-06-01T06:17:44;102253.41;;;26.25;35.89
48848;BME280;36611;51.638;5.784;2023-06-01T06:20:11;102257.03;;;26.26;35.70
48848;BME280;36611;51.638;5.784;2023-06-01T06:22:38;102254.44;;;26.24;35.82
48848;BME280;36611;51.638;5.784;2023-06-01T06:25:05;102248.75;;;26.26;35.80
48848;BME280;36611;51.638;5.784;2023-06-01T06:27:32;102247.03;;;26.25;35.85
48848;BME280;36611;51.638;5.784;2023-06-01T06:29:58;102247.91;;;26.25;35.71
48848;BME280;36611;51.638;5.784;2023-06-01T06:32:25;102252.38;;;26.26;35.80
48848;BME280;36611;51.638;5.784;2023-06-01T06:34:52;102247.91;;;26.25;35.47
48848;BME280;36611;51.638;5.784;2023-06-01T06:37:18;102237.75;;;26.26;35.75
48848;BME280;36611;51.638;5.784;2023-06-01T06:39:45;102249.63;;;26.26;35.64
48848;BME280;36611;51.638;5.784;2023-06-01T06:42:11;102248.75;;;26.26;35.68
48848;BME280;36611;51.638;5.784;2023-06-01T06:44:38;102252.38;;;26.26;35.79
48848;BME280;36611;51.638;5.784;2023-06-01T06:47:05;102254.28;;;26.26;35.63
48848;BME280;36611;51.638;5.784;2023-06-01T06:49:32;102253.41;;;26.25;35.60
48848;BME280;36611;51.638;5.784;2023-06-01T06:51:58;102257.03;;;26.26;35.72
48848;BME280;36611;51.638;5.784;2023-06-01T06:54:25;102252.56;;;26.25;35.65
48848;BME280;36611;51.638;5.784;2023-06-01T06:56:52;102251.53;;;26.26;35.48
48848;BME280;36611;51.638;5.784;2023-06-01T06:59:19;102250.66;;;26.25;35.57
48848;BME280;36611;51.638;5.784;2023-06-01T07:01:46;102259.78;;;26.26;35.51
48848;BME280;36611;51.638;5.784;2023-06-01T07:04:13;102255.31;;;26.25;35.50
48848;BME280;36611;51.638;5.784;2023-06-01T07:06:39;102257.88;;;26.26;35.74
48848;BME280;36611;51.638;5.784;2023-06-01T07:09:06;102257.03;;;26.26;35.58
48848;BME280;36611;51.638;5.784;2023-06-01T07:11:34;102254.28;;;26.26;35.95
48848;BME280;36611;51.638;5.784;2023-06-01T07:14:00;102259.59;;;26.27;35.87
48848;BME280;36611;51.638;5.784;2023-06-01T07:16:27;102256.00;;;26.27;35.68
48848;BME280;36611;51.638;5.784;2023-06-01T07:18:55;102256.00;;;26.27;35.62
48848;BME280;36611;51.638;5.784;2023-06-01T07:21:23;102253.22;;;26.27;35.46
48848;BME280;36611;51.638;5.784;2023-06-01T07:23:49;102256.00;;;26.27;35.70
48848;BME280;36611;51.638;5.784;2023-06-01T07:26:16;102251.34;;;26.27;35.63
48848;BME280;36611;51.638;5.784;2023-06-01T07:28:43;102257.72;;;26.28;35.66
48848;BME280;36611;51.638;5.784;2023-06-01T07:31:09;102250.31;;;26.28;35.62
48848;BME280;36611;51.638;5.784;2023-06-01T07:33:36;102251.34;;;26.27;35.67
48848;BME280;36611;51.638;5.784;2023-06-01T07:36:05;102257.72;;;26.28;35.63
48848;BME280;36611;51.638;5.784;2023-06-01T07:38:33;102252.19;;;26.28;35.70
48848;BME280;36611;51.638;5.784;2023-06-01T07:40:59;102258.56;;;26.28;35.76
48848;BME280;36611;51.638;5.784;2023-06-01T07:43:27;102252.19;;;26.28;35.88
48848;BME280;36611;51.638;5.784;2023-06-01T07:45:54;102250.47;;;26.27;35.62
48848;BME280;36611;51.638;5.784;2023-06-01T07:48:21;102258.75;;;26.27;35.58
48848;BME280;36611;51.638;5.784;2023-06-01T07:50:47;102256.00;;;26.27;35.85
48848;BME280;36611;51.638;5.784;2023-06-01T07:53:14;102257.72;;;26.28;35.69
48848;BME280;36611;51.638;5.784;2023-06-01T07:55:41;102257.72;;;26.28;35.94
48848;BME280;36611;51.638;5.784;2023-06-01T07:58:07;102249.44;;;26.28;35.92
48848;BME280;36611;51.638;5.784;2023-06-01T08:00:34;102247.72;;;26.27;35.88
48848;BME280;36611;51.638;5.784;2023-06-01T08:03:01;102251.34;;;26.27;35.57
48848;BME280;36611;51.638;5.784;2023-06-01T08:05:35;102245.84;;;26.27;35.92
48848;BME280;36611;51.638;5.784;2023-06-01T08:08:05;102247.72;;;26.27;35.73
48848;BME280;36611;51.638;5.784;2023-06-01T08:10:31;102252.38;;;26.26;35.71
48848;BME280;36611;51.638;5.784;2023-06-01T08:12:58;102253.22;;;26.27;35.82
48848;BME280;36611;51.638;5.784;2023-06-01T08:15:25;102251.34;;;26.27;35.88
48848;BME280;36611;51.638;5.784;2023-06-01T08:17:56;102247.56;;;26.28;35.66
48848;BME280;36611;51.638;5.784;2023-06-01T08:20:23;102246.69;;;26.28;36.02
48848;BME280;36611;51.638;5.784;2023-06-01T08:22:52;102245.84;;;26.27;35.81
48848;BME280;36611;51.638;5.784;2023-06-01T08:25:19;102245.66;;;26.29;35.69
48848;BME280;36611;51.638;5.784;2023-06-01T08:27:45;102238.44;;;26.28;35.70
48848;BME280;36611;51.638;5.784;2023-06-01T08:30:12;102241.19;;;26.28;35.87
48848;BME280;36611;51.638;5.784;2023-06-01T08:32:39;102242.91;;;26.29;35.81
48848;BME280;36611;51.638;5.784;2023-06-01T08:35:07;102239.09;;;26.30;35.96
48848;BME280;36611;51.638;5.784;2023-06-01T08:37:34;102228.28;;;26.28;35.90
48848;BME280;36611;51.638;5.784;2023-06-01T08:40:02;102239.97;;;26.31;35.81
48848;BME280;36611;51.638;5.784;2023-06-01T08:42:42;102233.59;;;26.30;35.92
48848;BME280;36611;51.638;5.784;2023-06-01T08:45:12;102237.38;;;26.29;35.97
48848;BME280;36611;51.638;5.784;2023-06-01T08:47:40;102233.59;;;26.30;36.01
48848;BME280;36611;51.638;5.784;2023-06-01T08:50:09;102225.34;;;26.30;35.83
48848;BME280;36611;51.638;5.784;2023-06-01T08:52:38;102228.94;;;26.31;35.91
48848;BME280;36611;51.638;5.784;2023-06-01T08:55:05;102222.59;;;26.30;36.05
48848;BME280;36611;51.638;5.784;2023-06-01T08:57:32;102228.94;;;26.31;36.08
48848;BME280;36611;51.638;5.784;2023-06-01T08:59:58;102221.53;;;26.31;36.09
48848;BME280;36611;51.638;5.784;2023-06-01T09:02:26;102218.78;;;26.31;36.09
48848;BME280;36611;51.638;5.784;2023-06-01T09:04:54;102207.78;;;26.31;35.95
48848;BME280;36611;51.638;5.784;2023-06-01T09:07:20;102207.78;;;26.31;35.65
48848;BME280;36611;51.638;5.784;2023-06-01T09:09:48;102214.13;;;26.32;35.84
48848;BME280;36611;51.638;5.784;2023-06-01T09:12:26;102217.75;;;26.32;36.15
48848;BME280;36611;51.638;5.784;2023-06-01T09:15:07;102206.72;;;26.32;35.94
48848;BME280;36611;51.638;5.784;2023-06-01T09:17:36;102210.53;;;26.31;36.07
48848;BME280;36611;51.638;5.784;2023-06-01T09:20:03;102203.13;;;26.32;35.84
48848;BME280;36611;51.638;5.784;2023-06-01T09:22:46;102200.38;;;26.32;36.00
48848;BME280;36611;51.638;5.784;2023-06-01T09:25:14;102194.84;;;26.32;36.07
48848;BME280;36611;51.638;5.784;2023-06-01T09:27:49;102203.97;;;26.32;36.08
48848;BME280;36611;51.638;5.784;2023-06-01T09:30:18;102196.75;;;26.31;35.89
48848;BME280;36611;51.638;5.784;2023-06-01T09:32:46;102192.97;;;26.32;36.00
48848;BME280;36611;51.638;5.784;2023-06-01T09:35:36;102190.75;;;26.27;35.99
48848;BME280;36611;51.638;5.784;2023-06-01T09:38:03;102187.13;;;26.27;35.91
48848;BME280;36611;51.638;5.784;2023-06-01T09:40:33;102188.69;;;26.29;36.05
48848;BME280;36611;51.638;5.784;2023-06-01T09:43:00;102182.31;;;26.29;35.78
48848;BME280;36611;51.638;5.784;2023-06-01T09:45:30;102189.53;;;26.30;35.96
48848;BME280;36611;51.638;5.784;2023-06-01T09:48:16;102190.22;;;26.32;35.85
48848;BME280;36611;51.638;5.784;2023-06-01T09:50:46;102181.28;;;26.30;36.19
48848;BME280;36611;51.638;5.784;2023-06-01T09:53:12;102184.03;;;26.30;36.32
48848;BME280;36611;51.638;5.784;2023-06-01T09:56:01;102181.94;;;26.32;35.83
48848;BME280;36611;51.638;5.784;2023-06-01T09:58:28;102179.38;;;26.31;36.20
48848;BME280;36611;51.638;5.784;2023-06-01T10:00:58;102174.72;;;26.31;35.95
48848;BME280;36611;51.638;5.784;2023-06-01T10:03:26;102177.47;;;26.31;36.02
48848;BME280;36611;51.638;5.784;2023-06-01T10:05:53;102176.63;;;26.31;35.80
48848;BME280;36611;51.638;5.784;2023-06-01T10:08:21;102177.47;;;26.31;35.80
48848;BME280;36611;51.638;5.784;2023-06-01T10:10:48;102170.94;;;26.32;35.85
48848;BME280;36611;51.638;5.784;2023-06-01T10:13:15;102175.59;;;26.32;36.03
48848;BME280;36611;51.638;5.784;2023-06-01T10:15:41;102180.94;;;26.33;35.83
48848;BME280;36611;51.638;5.784;2023-06-01T10:18:08;102178.34;;;26.32;35.96
48848;BME280;36611;51.638;5.784;2023-06-01T10:20:36;102174.56;;;26.33;35.79
48848;BME280;36611;51.638;5.784;2023-06-01T10:23:04;102166.13;;;26.34;35.80
48848;BME280;36611;51.638;5.784;2023-06-01T10:25:44;102157.00;;;26.34;36.07
48848;BME280;36611;51.638;5.784;2023-06-01T10:28:13;102162.66;;;26.32;35.73
48848;BME280;36611;51.638;5.784;2023-06-01T10:30:41;102161.81;;;26.32;35.89
48848;BME280;36611;51.638;5.784;2023-06-01T10:33:07;102161.66;;;26.33;36.01
48848;BME280;36611;51.638;5.784;2023-06-01T10:40:37;102162.66;;;26.32;36.02
48848;BME280;36611;51.638;5.784;2023-06-01T10:43:04;102155.28;;;26.33;35.84
48848;BME280;36611;51.638;5.784;2023-06-01T10:48:10;102161.47;;;26.35;35.94
48848;BME280;36611;51.638;5.784;2023-06-01T10:50:41;102164.22;;;26.35;35.82
48848;BME280;36611;51.638;5.784;2023-06-01T10:53:28;102149.59;;;26.34;35.99
48848;BME280;36611;51.638;5.784;2023-06-01T10:58:43;102151.84;;;26.31;35.85
48848;BME280;36611;51.638;5.784;2023-06-01T11:01:18;102146.00;;;26.34;35.76
48848;BME280;36611;51.638;5.784;2023-06-01T11:03:46;102148.91;;;26.32;36.06
48848;BME280;36611;51.638;5.784;2023-06-01T11:06:29;102151.50;;;26.34;35.94
48848;BME280;36611;51.638;5.784;2023-06-01T11:09:00;102142.38;;;26.33;36.12
48848;BME280;36611;51.638;5.784;2023-06-01T11:14:22;102137.03;;;26.32;35.91
48848;BME280;36611;51.638;5.784;2023-06-01T11:16:51;102134.25;;;26.32;36.01
48848;BME280;36611;51.638;5.784;2023-06-01T11:19:19;102130.50;;;26.33;35.74
48848;BME280;36611;51.638;5.784;2023-06-01T11:21:47;102134.97;;;26.34;36.07
48848;BME280;36611;51.638;5.784;2023-06-01T11:24:16;102137.72;;;26.34;36.08
48848;BME280;36611;51.638;5.784;2023-06-01T11:26:48;102127.56;;;26.34;36.06
48848;BME280;36611;51.638;5.784;2023-06-01T11:29:16;102127.56;;;26.34;35.83
48848;BME280;36611;51.638;5.784;2023-06-01T11:31:48;102123.78;;;26.35;36.00
48848;BME280;36611;51.638;5.784;2023-06-01T11:34:17;102121.19;;;26.34;35.91
48848;BME280;36611;51.638;5.784;2023-06-01T11:36:48;102122.91;;;26.35;36.23
48848;BME280;36611;51.638;5.784;2023-06-01T11:39:33;102119.31;;;26.34;35.92
48848;BME280;36611;51.638;5.784;2023-06-01T11:44:35;102112.09;;;26.33;35.94
48848;BME280;36611;51.638;5.784;2023-06-01T11:47:03;102121.19;;;26.34;36.12
48848;BME280;36611;51.638;5.784;2023-06-01T11:49:46;102112.75;;;26.35;36.18
48848;BME280;36611;51.638;5.784;2023-06-01T11:52:17;102107.44;;;26.34;36.31
48848;BME280;36611;51.638;5.784;2023-06-01T11:54:45;102105.72;;;26.33;36.25
48848;BME280;36611;51.638;5.784;2023-06-01T11:57:12;102102.78;;;26.34;36.08
48848;BME280;36611;51.638;5.784;2023-06-01T11:59:43;102097.28;;;26.34;36.14
48848;BME280;36611;51.638;5.784;2023-06-01T12:05:00;102102.78;;;26.34;36.21
48848;BME280;36611;51.638;5.784;2023-06-01T12:07:43;102107.44;;;26.34;36.05
48848;BME280;36611;51.638;5.784;2023-06-01T12:10:11;102099.31;;;26.32;36.01
48848;BME280;36611;51.638;5.784;2023-06-01T12:12:41;102088.31;;;26.32;36.12
48848;BME280;36611;51.638;5.784;2023-06-01T12:15:15;102094.50;;;26.34;36.56
48848;BME280;36611;51.638;5.784;2023-06-01T12:17:49;102088.16;;;26.34;36.11
48848;BME280;36611;51.638;5.784;2023-06-01T12:20:37;102088.16;;;26.34;36.29
48848;BME280;36611;51.638;5.784;2023-06-01T12:25:37;102085.53;;;26.32;36.14
48848;BME280;36611;51.638;5.784;2023-06-01T12:28:06;102076.09;;;26.35;36.07
48848;BME280;36611;51.638;5.784;2023-06-01T12:30:33;102078.19;;;26.33;36.08
48848;BME280;36611;51.638;5.784;2023-06-01T12:33:00;102083.50;;;26.34;36.03
48848;BME280;36611;51.638;5.784;2023-06-01T12:35:27;102083.50;;;26.34;36.18
48848;BME280;36611;51.638;5.784;2023-06-01T12:38:06;102075.25;;;26.34;36.07
48848;BME280;36611;51.638;5.784;2023-06-01T12:40:33;102086.25;;;26.34;36.06
48848;BME280;36611;51.638;5.784;2023-06-01T12:43:00;102082.63;;;26.34;35.95
48848;BME280;36611;51.638;5.784;2023-06-01T12:45:39;102078.66;;;26.36;36.08
48848;BME280;36611;51.638;5.784;2023-06-01T12:48:06;102075.25;;;26.34;36.21
48848;BME280;36611;51.638;5.784;2023-06-01T12:50:33;102066.97;;;26.34;36.06
48848;BME280;36611;51.638;5.784;2023-06-01T12:52:59;102072.47;;;26.34;36.00
48848;BME280;36611;51.638;5.784;2023-06-01T12:55:26;102075.25;;;26.34;36.20
48848;BME280;36611;51.638;5.784;2023-06-01T12:57:54;102071.44;;;26.35;36.07
48848;BME280;36611;51.638;5.784;2023-06-01T13:00:21;102070.59;;;26.35;36.13
48848;BME280;36611;51.638;5.784;2023-06-01T13:02:56;102064.22;;;26.34;36.37
48848;BME280;36611;51.638;5.784;2023-06-01T13:05:22;102062.31;;;26.35;36.08
48848;BME280;36611;51.638;5.784;2023-06-01T13:07:49;102065.94;;;26.35;35.90
48848;BME280;36611;51.638;5.784;2023-06-01T13:10:15;102073.16;;;26.36;36.20
48848;BME280;36611;51.638;5.784;2023-06-01T13:12:42;102066.78;;;26.36;35.95
48848;BME280;36611;51.638;5.784;2023-06-01T13:15:08;102065.94;;;26.35;36.19
48848;BME280;36611;51.638;5.784;2023-06-01T13:17:35;102054.72;;;26.37;35.90
48848;BME280;36611;51.638;5.784;2023-06-01T13:20:02;102059.38;;;26.36;36.17
48848;BME280;36611;51.638;5.784;2023-06-01T13:22:31;102056.63;;;26.36;36.11
48848;BME280;36611;51.638;5.784;2023-06-01T13:24:57;102053.88;;;26.36;36.06
48848;BME280;36611;51.638;5.784;2023-06-01T13:27:31;102058.53;;;26.36;36.18
48848;BME280;36611;51.638;5.784;2023-06-01T13:29:58;102051.13;;;26.36;36.28